Time;durP1;ratioP1;P1;durP2;ratioP2;P2;SDS_P1;SDS_P2;PMS_P1;PMS_P2;Temp;Humidity;BMP_temperature;BMP_pressure;BME280_temperature;BME280_humidity;BME280_pressure;Samples;Min_cycle;Max_cycle;Signal;HPM_P1;HPM_P2
2021/03/11 00:01:16;;;;;;;;;;;;;;;;;;5138959;27;19946;-75
2021/03/11 00:03:43;;;;;;;;;;;;;;;;;;5138606;27;19931;-75
2021/03/11 00:06:09;;;;;;;;;;;;;;;;;;5137772;27;19968;-75
2021/03/11 00:08:36;;;;;;;;;;;;;;;;;;5137085;27;20437;-75
2021/03/11 00:11:03;;;;;;;;;;;;;;;;;;5137538;27;19923;-75
2021/03/11 00:13:29;;;;;;;;;;;;;;;;;;5138451;27;19923;-75
2021/03/11 00:15:56;;;;;;;;;;;;;;;;;;5137984;27;19923;-75
2021/03/11 00:18:23;;;;;;;;;;;;;;;;;;5119488;27;19930;-75
2021/03/11 00:20:49;;;;;;;;;;;;;;;;;;5137138;27;19927;-75
2021/03/11 00:23:19;;;;;;;;;;;;;;;;;;5137718;27;19923;-76
2021/03/11 00:25:45;;;;;;;;;;;;;;;;;;5137518;27;19930;-76
2021/03/11 00:28:12;;;;;;;;;;;;;;;;;;5137332;27;19930;-75
2021/03/11 00:30:39;;;;;;;;;;;;;;;;;;5139328;27;19924;-76
2021/03/11 00:33:06;;;;;;;;;;;;;;;;;;5139929;27;19968;-75
2021/03/11 00:35:32;;;;;;;;;;;;;;;;;;5137604;27;20017;-75
2021/03/11 00:37:59;;;;;;;;;;;;;;;;;;5138506;27;19977;-75
2021/03/11 00:40:26;;;;;;;;;;;;;;;;;;5138100;27;19923;-75
2021/03/11 00:42:52;;;;;;;;;;;;;;;;;;5138252;27;19931;-75
2021/03/11 00:45:21;;;;;;;;;;;;;;;;;;5136724;27;19935;-75
2021/03/11 00:47:47;;;;;;;;;;;;;;;;;;5137302;27;19924;-75
2021/03/11 00:50:14;;;;;;;;;;;;;;;;;;5137870;27;20297;-75
2021/03/11 00:52:41;;;;;;;;;;;;;;;;;;5138880;27;19923;-75
2021/03/11 00:55:07;;;;;;;;;;;;;;;;;;5135802;27;19923;-75
2021/03/11 00:57:34;;;;;;;;;;;;;;;;;;5136260;27;20033;-75
2021/03/11 01:00:00;;;;;;;;;;;;;;;;;;5136527;27;19924;-75
2021/03/11 01:02:27;;;;;;;;;;;;;;;;;;5136471;27;19931;-75
2021/03/11 01:04:54;;;;;;;;;;;;;;;;;;5136815;27;19930;-75
2021/03/11 01:07:20;;;;;;;;;;;;;;;;;;5137349;27;19931;-75
2021/03/11 01:09:51;;;;;;;;;;;;;;;;;;5138009;27;19930;-75
2021/03/11 01:12:18;;;;;;;;;;;;;;;;;;5137314;27;19923;-74
2021/03/11 01:14:44;;;;;;;;;;;;;;;;;;5138348;27;19949;-75
2021/03/11 01:17:11;;;;;;;;;;;;;;;;;;5138469;27;19930;-75
2021/03/11 01:19:38;;;;;;;;;;;;;;;;;;5137452;27;19936;-75
2021/03/11 01:22:05;;;;;;;;;;;;;;;;;;5137277;27;19949;-75
2021/03/11 01:24:32;;;;;;;;;;;;;;;;;;5137271;27;19931;-75
2021/03/11 01:26:59;;;;;;;;;;;;;;;;;;5135730;27;19958;-75
2021/03/11 01:29:27;;;;;;;;;;;;;;;;;;5138112;27;20189;-75
2021/03/11 01:31:54;;;;;;;;;;;;;;;;;;5136687;27;19935;-75
2021/03/11 01:34:20;;;;;;;;;;;;;;;;;;5136863;28;19932;-75
2021/03/11 01:36:47;;;;;;;;;;;;;;;;;;5135968;28;20274;-75
2021/03/11 01:39:14;;;;;;;;;;;;;;;;;;5136980;28;19968;-74
2021/03/11 01:41:40;;;;;;;;;;;;;;;;;;5136890;28;19923;-75
2021/03/11 01:44:10;;;;;;;;;;;;;;;;;;5137380;28;19923;-75
2021/03/11 01:46:37;;;;;;;;;;;;;;;;;;5137684;28;19992;-75
2021/03/11 01:49:04;;;;;;;;;;;;;;;;;;5137672;28;20018;-75
2021/03/11 01:51:33;;;;;;;;;;;;;;;;;;5138320;28;20362;-75
2021/03/11 01:54:02;;;;;;;;;;;;;;;;;;5137341;28;20003;-75
2021/03/11 01:56:34;;;;;;;;;;;;;;;;;;5139922;28;19930;-75
2021/03/11 01:59:04;;;;;;;;;;;;;;;;;;5136799;28;19923;-75
2021/03/11 02:01:31;;;;;;;;;;;;;;;;;;5138245;28;19924;-74
2021/03/11 02:03:57;;;;;;;;;;;;;;;;;;5137254;28;19923;-75
2021/03/11 02:06:24;;;;;;;;;;;;;;;;;;5136932;28;20323;-75
2021/03/11 02:08:51;;;;;;;;;;;;;;;;;;5135880;28;19924;-75
2021/03/11 02:11:17;;;;;;;;;;;;;;;;;;5136129;28;19968;-75
2021/03/11 02:13:45;;;;;;;;;;;;;;;;;;5137576;28;20303;-74
2021/03/11 02:16:13;;;;;;;;;;;;;;;;;;5138685;28;20311;-74
2021/03/11 02:18:39;;;;;;;;;;;;;;;;;;5119210;28;19927;-75
2021/03/11 02:21:06;;;;;;;;;;;;;;;;;;5136917;28;19930;-75
2021/03/11 02:23:32;;;;;;;;;;;;;;;;;;5137742;28;19924;-75
2021/03/11 02:26:01;;;;;;;;;;;;;;;;;;5137078;28;20190;-75
2021/03/11 02:28:29;;;;;;;;;;;;;;;;;;5135836;27;19991;-75
2021/03/11 02:30:56;;;;;;;;;;;;;;;;;;5137408;27;19945;-74
2021/03/11 02:33:23;;;;;;;;;;;;;;;;;;5141189;27;19923;-75
2021/03/11 02:35:49;;;;;;;;;;;;;;;;;;5141188;27;19927;-75
2021/03/11 02:38:17;;;;;;;;;;;;;;;;;;5143437;27;19931;-74
2021/03/11 02:40:44;;;;;;;;;;;;;;;;;;5141277;27;20301;-75
2021/03/11 02:43:10;;;;;;;;;;;;;;;;;;5141756;27;20377;-75
2021/03/11 02:45:37;;;;;;;;;;;;;;;;;;5141279;27;19924;-74
2021/03/11 02:48:09;;;;;;;;;;;;;;;;;;5142120;27;20372;-75
2021/03/11 02:50:36;;;;;;;;;;;;;;;;;;5144738;27;19968;-74
2021/03/11 02:53:03;;;;;;;;;;;;;;;;;;5141930;27;19924;-75
2021/03/11 02:55:30;;;;;;;;;;;;;;;;;;5121964;27;19925;-75
2021/03/11 02:57:56;;;;;;;;;;;;;;;;;;5139888;27;19979;-75
2021/03/11 03:00:23;;;;;;;;;;;;;;;;;;5139866;27;19923;-76
2021/03/11 03:02:50;;;;;;;;;;;;;;;;;;5122566;27;19927;-75
2021/03/11 03:05:16;;;;;;;;;;;;;;;;;;5140014;27;19923;-75
2021/03/11 03:07:43;;;;;;;;;;;;;;;;;;5141400;27;19923;-75
2021/03/11 03:10:10;;;;;;;;;;;;;;;;;;5139728;27;19975;-75
2021/03/11 03:12:36;;;;;;;;;;;;;;;;;;5121754;27;19923;-75
2021/03/11 03:15:03;;;;;;;;;;;;;;;;;;5142589;27;19923;-75
2021/03/11 03:17:30;;;;;;;;;;;;;;;;;;5139388;27;19939;-75
2021/03/11 03:19:56;;;;;;;;;;;;;;;;;;5139516;27;19924;-75
2021/03/11 03:22:23;;;;;;;;;;;;;;;;;;5139178;27;19924;-75
2021/03/11 03:24:50;;;;;;;;;;;;;;;;;;5139633;27;19927;-75
2021/03/11 03:27:18;;;;;;;;;;;;;;;;;;5138648;27;19924;-75
2021/03/11 03:29:44;;;;;;;;;;;;;;;;;;5139263;27;20140;-75
2021/03/11 03:32:11;;;;;;;;;;;;;;;;;;5120966;27;19923;-75
2021/03/11 03:34:38;;;;;;;;;;;;;;;;;;5138844;27;20373;-75
2021/03/11 03:37:05;;;;;;;;;;;;;;;;;;5139008;27;19977;-75
2021/03/11 03:39:31;;;;;;;;;;;;;;;;;;5138672;27;19963;-75
2021/03/11 03:41:59;;;;;;;;;;;;;;;;;;5138495;27;19924;-75
2021/03/11 03:44:25;;;;;;;;;;;;;;;;;;5138139;27;20381;-76
2021/03/11 03:46:52;;;;;;;;;;;;;;;;;;5138488;27;19923;-75
2021/03/11 03:49:19;;;;;;;;;;;;;;;;;;5120169;27;19923;-75
2021/03/11 03:51:45;;;;;;;;;;;;;;;;;;5138028;27;19928;-75
2021/03/11 03:54:12;;;;;;;;;;;;;;;;;;5137918;27;19923;-75
2021/03/11 03:56:38;;;;;;;;;;;;;;;;;;5137862;27;19924;-75
2021/03/11 03:59:05;;;;;;;;;;;;;;;;;;5119620;27;20403;-75
2021/03/11 04:01:32;;;;;;;;;;;;;;;;;;5138171;27;19948;-75
2021/03/11 04:04:01;;;;;;;;;;;;;;;;;;5139583;27;19968;-74
2021/03/11 04:06:28;;;;;;;;;;;;;;;;;;5137794;27;19931;-75
2021/03/11 04:08:54;;;;;;;;;;;;;;;;;;5140038;27;20101;-75
2021/03/11 04:11:21;;;;;;;;;;;;;;;;;;5139546;27;19923;-75
2021/03/11 04:13:48;;;;;;;;;;;;;;;;;;5139105;27;20013;-75
2021/03/11 04:16:14;;;;;;;;;;;;;;;;;;5140267;27;20338;-75
2021/03/11 04:18:41;;;;;;;;;;;;;;;;;;5140458;27;20011;-75
2021/03/11 04:21:07;;;;;;;;;;;;;;;;;;5139225;27;19930;-75
2021/03/11 04:23:34;;;;;;;;;;;;;;;;;;5138815;27;20262;-74
2021/03/11 04:26:02;;;;;;;;;;;;;;;;;;5137939;27;19927;-74
2021/03/11 04:28:29;;;;;;;;;;;;;;;;;;5138270;27;19923;-75
2021/03/11 04:30:55;;;;;;;;;;;;;;;;;;5138477;27;19929;-75
2021/03/11 04:33:22;;;;;;;;;;;;;;;;;;5138597;27;19978;-74
2021/03/11 04:35:48;;;;;;;;;;;;;;;;;;5137945;27;19924;-75
2021/03/11 04:38:16;;;;;;;;;;;;;;;;;;5138507;27;19934;-76
2021/03/11 04:40:44;;;;;;;;;;;;;;;;;;5139011;27;19924;-76
2021/03/11 04:43:10;;;;;;;;;;;;;;;;;;5139780;27;19947;-75
2021/03/11 04:45:38;;;;;;;;;;;;;;;;;;5138716;27;19924;-76
2021/03/11 04:48:05;;;;;;;;;;;;;;;;;;5137870;27;20296;-76
2021/03/11 04:50:34;;;;;;;;;;;;;;;;;;5137129;27;19923;-76
2021/03/11 04:53:01;;;;;;;;;;;;;;;;;;5137090;27;19924;-75
2021/03/11 04:55:27;;;;;;;;;;;;;;;;;;5136552;27;19976;-76
2021/03/11 04:57:54;;;;;;;;;;;;;;;;;;5138742;27;19923;-76
2021/03/11 05:00:21;;;;;;;;;;;;;;;;;;5117832;27;19969;-76
2021/03/11 05:02:47;;;;;;;;;;;;;;;;;;5136868;27;19976;-75
2021/03/11 05:05:14;;;;;;;;;;;;;;;;;;5117800;27;19946;-76
2021/03/11 05:07:41;;;;;;;;;;;;;;;;;;5136312;27;19923;-76
2021/03/11 05:10:07;;;;;;;;;;;;;;;;;;5135443;27;19923;-76
2021/03/11 05:12:34;;;;;;;;;;;;;;;;;;5135788;27;19988;-76
2021/03/11 05:15:00;;;;;;;;;;;;;;;;;;5136920;27;19923;-76
2021/03/11 05:17:27;;;;;;;;;;;;;;;;;;5135250;27;19924;-76
2021/03/11 05:19:54;;;;;;;;;;;;;;;;;;5135421;27;19923;-76
2021/03/11 05:22:20;;;;;;;;;;;;;;;;;;5135257;27;19931;-76
2021/03/11 05:24:47;;;;;;;;;;;;;;;;;;5135426;27;19923;-76
2021/03/11 05:27:13;;;;;;;;;;;;;;;;;;5135129;27;20285;-76
2021/03/11 05:29:40;;;;;;;;;;;;;;;;;;5135083;27;19923;-76
2021/03/11 05:32:07;;;;;;;;;;;;;;;;;;5135261;27;20440;-76
2021/03/11 05:34:33;;;;;;;;;;;;;;;;;;5135275;27;20318;-76
2021/03/11 05:37:00;;;;;;;;;;;;;;;;;;5135801;28;19928;-76
2021/03/11 05:39:27;;;;;;;;;;;;;;;;;;5118339;28;19924;-76
2021/03/11 05:41:53;;;;;;;;;;;;;;;;;;5142597;28;19952;-76
2021/03/11 05:44:20;;;;;;;;;;;;;;;;;;5143253;28;19950;-75
2021/03/11 05:46:46;;;;;;;;;;;;;;;;;;5135583;28;20274;-76
2021/03/11 05:49:13;;;;;;;;;;;;;;;;;;5134901;28;19924;-76
2021/03/11 05:51:40;;;;;;;;;;;;;;;;;;5134698;28;19923;-75
2021/03/11 05:54:06;;;;;;;;;;;;;;;;;;5135039;28;19930;-76
2021/03/11 05:56:33;;;;;;;;;;;;;;;;;;5135125;28;19923;-76
2021/03/11 05:59:00;;;;;;;;;;;;;;;;;;5135057;28;19924;-76
2021/03/11 06:01:26;;;;;;;;;;;;;;;;;;5134845;28;20307;-76
2021/03/11 06:03:53;;;;;;;;;;;;;;;;;;5134739;28;19923;-74
2021/03/11 06:06:19;;;;;;;;;;;;;;;;;;5138086;27;19923;-76
2021/03/11 06:08:46;;;;;;;;;;;;;;;;;;5139107;27;19924;-75
2021/03/11 06:11:13;;;;;;;;;;;;;;;;;;5139232;27;20268;-76
2021/03/11 06:13:39;;;;;;;;;;;;;;;;;;5138702;27;19923;-74
2021/03/11 06:16:06;;;;;;;;;;;;;;;;;;5138937;27;19931;-74
2021/03/11 06:18:33;;;;;;;;;;;;;;;;;;5138665;27;20372;-75
2021/03/11 06:20:59;;;;;;;;;;;;;;;;;;5138951;27;19963;-74
2021/03/11 06:23:26;;;;;;;;;;;;;;;;;;5138796;27;19924;-74
2021/03/11 06:25:53;;;;;;;;;;;;;;;;;;5139568;27;19927;-74
2021/03/11 06:28:19;;;;;;;;;;;;;;;;;;5138179;27;20387;-74
2021/03/11 06:30:46;;;;;;;;;;;;;;;;;;5138386;27;20281;-74
2021/03/11 06:33:12;;;;;;;;;;;;;;;;;;5138589;27;19923;-74
2021/03/11 06:35:40;;;;;;;;;;;;;;;;;;5138658;27;19976;-74
2021/03/11 06:38:07;;;;;;;;;;;;;;;;;;5138378;27;19923;-74
2021/03/11 06:40:33;;;;;;;;;;;;;;;;;;5138684;27;19930;-74
2021/03/11 06:43:00;;;;;;;;;;;;;;;;;;5138044;27;20297;-74
2021/03/11 06:45:26;;;;;;;;;;;;;;;;;;5138260;27;19923;-74
2021/03/11 06:47:53;;;;;;;;;;;;;;;;;;5138811;27;19928;-73
2021/03/11 06:50:20;;;;;;;;;;;;;;;;;;5139221;27;19946;-74
2021/03/11 06:52:46;;;;;;;;;;;;;;;;;;5140359;27;19924;-74
2021/03/11 06:55:13;;;;;;;;;;;;;;;;;;5138413;27;19976;-72
2021/03/11 06:57:40;;;;;;;;;;;;;;;;;;5138030;27;19923;-74
2021/03/11 07:00:07;;;;;;;;;;;;;;;;;;5138077;27;19969;-73
2021/03/11 07:02:33;;;;;;;;;;;;;;;;;;5137781;27;19930;-74
2021/03/11 07:05:00;;;;;;;;;;;;;;;;;;5137535;27;20298;-72
2021/03/11 07:07:27;;;;;;;;;;;;;;;;;;5137545;27;20334;-72
2021/03/11 07:09:53;;;;;;;;;;;;;;;;;;5137653;27;19923;-73
2021/03/11 07:12:20;;;;;;;;;;;;;;;;;;5116184;22;19928;-75
2021/03/11 07:14:47;;;;;;;;;;;;;;;;;;5080072;28;19925;-77
2021/03/11 07:17:21;;;;;;;;;;;;;;;;;;5079031;28;19932;-77
2021/03/11 07:19:48;;;;;;;;;;;;;;;;;;5079509;28;20027;-76
2021/03/11 07:22:14;;;;;;;;;;;;;;;;;;5080476;28;19931;-76
2021/03/11 07:24:41;;;;;;;;;;;;;;;;;;5079724;28;19924;-76
2021/03/11 07:27:09;;;;;;;;;;;;;;;;;;5081886;28;19924;-80
2021/03/11 07:29:35;;;;;;;;;;;;;;;;;;5081604;28;19931;-76
2021/03/11 07:32:02;;;;;;;;;;;;;;;;;;5080187;28;20022;-76
2021/03/11 07:34:29;;;;;;;;;;;;;;;;;;5081248;28;19947;-76
2021/03/11 07:37:00;;;;;;;;;;;;;;;;;;5081035;28;20305;-75
2021/03/11 07:39:31;;;;;;;;;;;;;;;;;;5084042;28;20439;-75
2021/03/11 07:42:00;;;;;;;;;;;;;;;;;;5082097;28;20374;-74
2021/03/11 07:44:26;;;;;;;;;;;;;;;;;;5079348;28;19936;-76
2021/03/11 07:46:53;;;;;;;;;;;;;;;;;;5079320;28;19931;-76
2021/03/11 07:49:27;;;;;;;;;;;;;;;;;;5079131;28;19924;-76
2021/03/11 07:51:54;;;;;;;;;;;;;;;;;;5078975;28;19960;-75
2021/03/11 07:54:21;;;;;;;;;;;;;;;;;;5077914;28;19924;-75
2021/03/11 07:56:48;;;;;;;;;;;;;;;;;;5060148;28;20021;-76
2021/03/11 07:59:14;;;;;;;;;;;;;;;;;;5079044;28;19925;-75
2021/03/11 08:01:41;;;;;;;;;;;;;;;;;;5077136;28;20370;-76
2021/03/11 08:04:10;;;;;;;;;;;;;;;;;;5075927;28;20369;-75
2021/03/11 08:06:36;;;;;;;;;;;;;;;;;;5075219;28;19935;-76
2021/03/11 08:09:04;;;;;;;;;;;;;;;;;;5075082;28;20298;-75
2021/03/11 08:11:31;;;;;;;;;;;;;;;;;;5075229;28;20014;-77
2021/03/11 08:13:58;;;;;;;;;;;;;;;;;;5075167;28;20382;-75
2021/03/11 08:16:26;;;;;;;;;;;;;;;;;;5075167;28;19924;-75
2021/03/11 08:18:54;;;;;;;;;;;;;;;;;;5075535;28;19932;-75
2021/03/11 08:21:21;;;;;;;;;;;;;;;;;;5074983;28;19924;-75
2021/03/11 08:23:48;;;;;;;;;;;;;;;;;;5074526;28;19925;-75
2021/03/11 08:26:15;;;;;;;;;;;;;;;;;;5074949;28;19928;-76
2021/03/11 08:28:43;;;;;;;;;;;;;;;;;;5074164;28;19925;-75
2021/03/11 08:31:10;;;;;;;;;;;;;;;;;;5074891;28;20289;-76
2021/03/11 08:33:38;;;;;;;;;;;;;;;;;;5075016;28;19925;-75
2021/03/11 08:36:05;;;;;;;;;;;;;;;;;;5074920;28;20438;-75
2021/03/11 08:38:32;;;;;;;;;;;;;;;;;;5074502;28;20393;-75
2021/03/11 08:41:00;;;;;;;;;;;;;;;;;;5074739;28;19931;-76
2021/03/11 08:43:27;;;;;;;;;;;;;;;;;;5075947;28;19925;-76
2021/03/11 08:45:54;;;;;;;;;;;;;;;;;;5075491;28;19925;-76
2021/03/11 08:48:20;;;;;;;;;;;;;;;;;;5074602;28;20378;-77
2021/03/11 08:50:47;;;;;;;;;;;;;;;;;;5056944;28;19924;-76
2021/03/11 08:53:14;;;;;;;;;;;;;;;;;;5056837;28;19947;-76
2021/03/11 08:55:40;;;;;;;;;;;;;;;;;;5074740;28;19963;-76
2021/03/11 08:58:07;;;;;;;;;;;;;;;;;;5075084;28;19924;-76
2021/03/11 09:00:34;;;;;;;;;;;;;;;;;;5074860;28;19924;-77
2021/03/11 09:03:00;;;;;;;;;;;;;;;;;;5074801;28;19928;-76
2021/03/11 09:05:27;;;;;;;;;;;;;;;;;;5074793;28;19936;-76
2021/03/11 09:07:54;;;;;;;;;;;;;;;;;;5074437;28;20409;-77
2021/03/11 09:10:21;;;;;;;;;;;;;;;;;;5076375;28;20374;-76
2021/03/11 09:12:48;;;;;;;;;;;;;;;;;;5074113;28;19924;-76
2021/03/11 09:15:15;;;;;;;;;;;;;;;;;;5075493;28;19925;-77
2021/03/11 09:17:42;;;;;;;;;;;;;;;;;;5077326;28;19925;-76
2021/03/11 09:20:08;;;;;;;;;;;;;;;;;;5076528;28;19928;-76
2021/03/11 09:22:35;;;;;;;;;;;;;;;;;;5077031;28;20377;-77
2021/03/11 09:25:02;;;;;;;;;;;;;;;;;;5060193;28;19929;-76
2021/03/11 09:27:29;;;;;;;;;;;;;;;;;;5076815;28;19972;-76
2021/03/11 09:29:55;;;;;;;;;;;;;;;;;;5076353;28;19925;-77
2021/03/11 09:32:22;;;;;;;;;;;;;;;;;;5077452;28;20015;-76
2021/03/11 09:34:48;;;;;;;;;;;;;;;;;;5058890;28;19925;-76
2021/03/11 09:37:15;;;;;;;;;;;;;;;;;;5077215;28;19925;-76
2021/03/11 09:39:42;;;;;;;;;;;;;;;;;;5076713;28;20401;-76
2021/03/11 09:42:09;;;;;;;;;;;;;;;;;;5075197;28;19990;-76
2021/03/11 09:44:36;;;;;;;;;;;;;;;;;;5074511;28;19924;-76
2021/03/11 09:47:02;;;;;;;;;;;;;;;;;;5074490;28;19924;-76
2021/03/11 09:49:31;;;;;;;;;;;;;;;;;;5074212;28;19928;-76
2021/03/11 09:51:58;;;;;;;;;;;;;;;;;;5074230;28;19924;-76
2021/03/11 09:54:24;;;;;;;;;;;;;;;;;;5074266;28;20293;-77
2021/03/11 09:56:51;;;;;;;;;;;;;;;;;;5075624;28;19924;-79
2021/03/11 09:59:17;;;;;;;;;;;;;;;;;;5074168;28;19925;-79
2021/03/11 10:01:44;;;;;;;;;;;;;;;;;;5075823;28;20290;-79
2021/03/11 10:04:11;;;;;;;;;;;;;;;;;;5075195;28;19931;-79
2021/03/11 10:06:37;;;;;;;;;;;;;;;;;;5074825;28;19928;-78
2021/03/11 10:09:07;;;;;;;;;;;;;;;;;;5074179;28;19947;-78
2021/03/11 10:11:35;;;;;;;;;;;;;;;;;;5074524;28;19924;-78
2021/03/11 10:14:02;;;;;;;;;;;;;;;;;;5074054;28;20382;-77
2021/03/11 10:16:28;;;;;;;;;;;;;;;;;;5074326;28;19964;-78
2021/03/11 10:18:55;;;;;;;;;;;;;;;;;;5074769;28;19924;-78
2021/03/11 10:21:24;;;;;;;;;;;;;;;;;;5074387;28;19925;-78
2021/03/11 10:23:52;;;;;;;22.08;20.52;;;;;;;;;;5075194;28;20411;-78
2021/03/11 10:26:19;;;;;;;;;;;;;;;;;;5074790;28;20197;-79
2021/03/11 10:28:45;;;;;;;;;;;;;;;;;;5074221;28;19943;-79
2021/03/11 10:31:12;;;;;;;;;;;;;;;;;;5075029;28;19920;-86
2021/03/11 10:33:40;;;;;;;;;;;;;;;;;;5075592;28;19966;-86
2021/03/11 10:36:07;;;;;;;;;;;;;;;;;;5078567;28;19931;-84
2021/03/11 10:38:36;;;;;;;;;;;;;;;;;;5076369;28;19927;-84
2021/03/11 10:41:02;;;;;;;;;;;;;;;;;;5078668;28;19983;-83
2021/03/11 10:43:29;;;;;;;;;;;;;;;;;;5079977;28;19921;-83
2021/03/11 10:45:56;;;;;;;;;;;;;;;;;;5079197;28;19924;-77
2021/03/11 10:48:22;;;;;;;;;;;;;;;;;;5076906;28;19924;-77
2021/03/11 10:50:49;;;;;;;;;;;;;;;;;;5075683;28;19928;-79
2021/03/11 10:53:16;;;;;;;;;;;;;;;;;;5059652;28;19920;-77
2021/03/11 10:55:43;;;;;;;;;;;;;;;;;;5079864;28;19928;-77
2021/03/11 10:58:09;;;;;;;;;;;;;;;;;;5080147;28;19927;-76
2021/03/11 11:00:36;;;;;;;;;;;;;;;;;;5078608;28;19973;-76
2021/03/11 11:03:03;;;;;;;;;;;;;;;;;;5078685;28;19935;-76
2021/03/11 11:05:29;;;;;;;;;;;;;;;;;;5079844;28;19966;-76
2021/03/11 11:07:58;;;;;;;;;;;;;;;;;;5079412;28;20325;-76
2021/03/11 11:10:24;;;;;;;;;;;;;;;;;;5078635;28;19921;-76
2021/03/11 11:12:51;;;;;;;;;;;;;;;;;;5078815;28;19921;-76
2021/03/11 11:15:17;;;;;;;;;;;;;;;;;;5078335;28;20408;-77
2021/03/11 11:17:44;;;;;;;;;;;;;;;;;;5080111;28;20273;-76
2021/03/11 11:20:10;;;;;;;;;;;;;;;;;;5079132;28;19928;-76
2021/03/11 11:22:37;;;;;;;;;;;;;;;;;;5079475;28;19932;-77
2021/03/11 11:25:04;;;;;;;;;;;;;;;;;;5078832;28;20281;-76
2021/03/11 11:27:30;;;;;;;;;;;;;;;;;;5079934;28;19943;-76
2021/03/11 11:29:58;;;;;;;;;;;;;;;;;;5083109;28;20381;-76
2021/03/11 11:32:29;;;;;;;;;;;;;;;;;;5083785;28;19920;-76
2021/03/11 11:34:56;;;;;;;;;;;;;;;;;;5064173;28;19921;-76
2021/03/11 11:37:23;;;;;;;;;;;;;;;;;;5081288;28;20410;-76
2021/03/11 11:39:50;;;;;;;;;;;;;;;;;;5081401;28;20336;-76
2021/03/11 11:42:16;;;;;;;;;;;;;;;;;;5082110;28;19920;-77
2021/03/11 11:44:43;;;;;;;;;;;;;;;;;;5078750;28;19927;-76
2021/03/11 11:47:10;;;;;;;;;;;;;;;;;;5077240;28;19927;-76
2021/03/11 11:49:37;;;;;;;;;;;;;;;;;;5078070;28;20382;-75
2021/03/11 11:52:03;;;;;;;;;;;;;;;;;;5080023;28;19921;-77
2021/03/11 11:54:31;;;;;;;;;;;;;;;;;;5079293;28;19920;-77
2021/03/11 11:56:57;;;;;;;;;;;;;;;;;;5077786;28;19924;-77
2021/03/11 11:59:24;;;;;;;;;;;;;;;;;;5077931;28;19920;-77
2021/03/11 12:01:51;;;;;;;;;;;;;;;;;;5078248;28;19924;-77
2021/03/11 12:04:17;;;;;;;;;;;;;;;;;;5076795;28;19931;-74
2021/03/11 12:06:44;;;;;;;;;;;;;;;;;;5075766;28;19927;-79
2021/03/11 12:09:11;;;;;;;;;;;;;;;;;;5076443;28;19920;-77
2021/03/11 12:11:37;;;;;;;;;;;;;;;;;;5075828;28;19920;-79
2021/03/11 12:14:04;;;;;;;;;;;;;;;;;;5075966;28;20015;-80
2021/03/11 12:16:30;;;;;;;;;;;;;;;;;;5075856;28;19920;-78
2021/03/11 12:18:57;;;;;;;;;;;;;;;;;;5075172;28;19924;-74
2021/03/11 12:21:24;;;;;;;;;;;;;;;;;;5074748;28;19920;-74
2021/03/11 12:23:50;;;;;;;;;;;;;;;;;;5074917;28;19927;-75
2021/03/11 12:26:18;;;;;;;;;;;;;;;;;;5074816;28;19928;-74
2021/03/11 12:28:44;;;;;;;;;;;;;;;;;;5075095;28;19920;-75
2021/03/11 12:31:11;;;;;;;;;;;;;;;;;;5075099;28;19920;-75
2021/03/11 12:33:37;;;;;;;;;;;;;;;;;;5074735;28;19924;-74
2021/03/11 12:36:04;;;;;;;;;;;;;;;;;;5074666;28;19966;-74
2021/03/11 12:38:31;;;;;;;;;;;;;;;;;;5074889;28;19963;-75
2021/03/11 12:40:57;;;;;;;;;;;;;;;;;;5074612;28;20398;-75
2021/03/11 12:43:24;;;;;;;;;;;;;;;;;;5074590;28;19920;-74
2021/03/11 12:45:50;;;;;;;;;;;;;;;;;;5074689;28;19927;-75
2021/03/11 12:48:17;;;;;;;;;;;;;;;;;;5074760;28;19924;-75
2021/03/11 12:50:48;;;;;;;;;;;;;;;;;;5074289;28;19920;-74
2021/03/11 12:53:14;;;;;;;;;;;;;;;;;;5074564;28;20367;-75
2021/03/11 12:55:41;;;;;;;;;;;;;;;;;;5074569;28;19921;-74
2021/03/11 12:58:08;;;;;;;;;;;;;;;;;;5074532;28;20285;-74
2021/03/11 13:00:34;;;;;;;;;;;;;;;;;;5074345;28;19921;-74
2021/03/11 13:03:01;;;;;;;;;;;;;;;;;;5074294;28;19950;-74
2021/03/11 13:05:28;;;;;;;;;;;;;;;;;;5074582;28;19920;-75
2021/03/11 13:07:54;;;;;;;;;;;;;;;;;;5073813;28;20382;-74
2021/03/11 13:10:21;;;;;;;;;;;;;;;;;;5073932;28;19935;-74
2021/03/11 13:12:48;;;;;;;;;;;;;;;;;;5052653;28;19921;-74
2021/03/11 13:15:14;;;;;;;;;;;;;;;;;;5054657;28;19920;-74
2021/03/11 13:17:41;;;;;;;;;;;;;;;;;;5054544;28;19998;-75
2021/03/11 13:20:08;;;;;;;;;;;;;;;;;;5054849;28;20408;-74
2021/03/11 13:22:34;;;;;;;;;;;;;;;;;;5054781;28;20698;-74
2021/03/11 13:25:01;;;;;;;;;;;;;;;;;;5054476;28;20432;-74
2021/03/11 13:27:27;;;;;;;;;;;;;;;;;;5054050;28;20359;-74
2021/03/11 13:29:54;;;;;;;;;;;;;;;;;;5053360;28;19928;-75
2021/03/11 13:32:21;;;;;;;;;;;;;;;;;;5054107;28;19921;-75
2021/03/11 13:34:47;;;;;;;;;;;;;;;;;;5054219;28;19925;-75
2021/03/11 13:37:14;;;;;;;;;;;;;;;;;;5054231;28;19921;-73
2021/03/11 13:39:41;;;;;;;;;;;;;;;;;;5054262;28;19990;-75
2021/03/11 13:42:08;;;;;;;;;;;;;;;;;;5054148;28;19924;-74
2021/03/11 13:44:36;;;;;;;;;;;;;;;;;;5053861;28;19974;-75
2021/03/11 13:47:03;;;;;;;;;;;;;;;;;;5054145;28;19921;-75
2021/03/11 13:49:29;;;;;;;;;;;;;;;;;;5054274;28;19925;-74
2021/03/11 13:51:56;;;;;;;;;;;;;;;;;;5054374;28;19921;-75
2021/03/11 13:54:24;;;;;;;;;;;;;;;;;;5054503;28;19921;-74
2021/03/11 13:56:51;;;;;;;;;;;;;;;;;;5053815;28;20015;-76
2021/03/11 13:59:17;;;;;;;;;;;;;;;;;;5053982;28;19924;-75
2021/03/11 14:01:44;;;;;;;;;;;;;;;;;;5053429;28;19920;-74
2021/03/11 14:04:11;;;;;;;;;;;;;;;;;;5053718;28;19921;-74
2021/03/11 14:06:39;;;;;;;;;;;;;;;;;;5053733;28;20389;-75
2021/03/11 14:09:06;;;;;;;;;;;;;;;;;;5053644;28;19921;-75
2021/03/11 14:11:32;;;;;;;;;;;;;;;;;;5056788;28;19924;-73
2021/03/11 14:13:59;;;;;;;;;;;;;;;;;;5074186;28;19943;-77
2021/03/11 14:16:26;;;;;;;;;;;;;;;;;;5074090;28;19927;-77
2021/03/11 14:18:52;;;;;;;;;;;;;;;;;;5073847;28;19932;-77
2021/03/11 14:21:19;;;;;;;;;;;;;;;;;;5055824;28;19920;-76
2021/03/11 14:23:45;;;;;;;;;;;;;;;;;;5073497;28;19920;-75
2021/03/11 14:26:12;;;;;;;;;;;;;;;;;;5073695;28;19920;-75
2021/03/11 14:28:39;;;;;;;;;;;;;;;;;;5076708;28;19972;-75
2021/03/11 14:31:05;;;;;;;;;;;;;;;;;;5077342;28;19920;-74
2021/03/11 14:33:32;;;;;;;;;;;;;;;;;;5077280;28;19924;-75
2021/03/11 14:35:59;;;;;;;;;;;;;;;;;;5077045;28;20013;-75
2021/03/11 14:38:25;;;;;;;;;;;;;;;;;;5075346;28;19975;-75
2021/03/11 14:40:52;;;;;;;;;;;;;;;;;;5077076;28;19927;-74
2021/03/11 14:43:18;;;;;;;;;;;;;;;;;;5077184;28;20011;-75
2021/03/11 14:45:45;;;;;;;;;;;;;;;;;;5077122;28;19920;-75
2021/03/11 14:48:12;;;;;;;;;;;;;;;;;;5077209;28;20294;-74
2021/03/11 14:50:38;;;;;;;;;;;;;;;;;;5076692;28;20373;-74
2021/03/11 14:53:06;;;;;;;;;;;;;;;;;;5076695;28;20393;-75
2021/03/11 14:55:32;;;;;;;;;;;;;;;;;;5076987;28;19954;-77
2021/03/11 14:57:59;;;;;;;;;;;;;;;;;;5076417;28;19920;-75
2021/03/11 15:00:26;;;;;;;;;;;;;;;;;;5076564;28;20327;-75
2021/03/11 15:02:52;;;;;;;;;;;;;;;;;;5076477;28;19920;-75
2021/03/11 15:05:19;;;;;;;;;;;;;;;;;;5076982;28;20251;-75
2021/03/11 15:07:47;;;;;;;;;;;;;;;;;;5076013;28;20011;-75
2021/03/11 15:10:13;;;;;;;;;;;;;;;;;;5076794;28;19982;-75
2021/03/11 15:12:40;;;;;;;;;;;;;;;;;;5076409;28;20015;-77
2021/03/11 15:15:06;;;;;;;;;;;;;;;;;;5077254;28;19974;-75
2021/03/11 15:17:33;;;;;;;;;;;;;;;;;;5076402;28;20305;-74
2021/03/11 15:19:59;;;;;;;;;;;;;;;;;;5076569;28;20258;-74
2021/03/11 15:22:26;;;;;;;;;;;;;;;;;;5076077;28;20316;-75
2021/03/11 15:24:53;;;;;;;;;;;;;;;;;;5058656;28;20015;-74
2021/03/11 15:27:19;;;;;;;;;;;;;;;;;;5076365;28;19921;-75
2021/03/11 15:29:48;;;;;;;;;;;;;;;;;;5076950;28;19927;-75
2021/03/11 15:32:15;;;;;;;;;;;;;;;;;;5076618;28;19928;-75
2021/03/11 15:34:42;;;;;;;;;;;;;;;;;;5076933;28;19920;-75
2021/03/11 15:37:08;;;;;;;;;;;;;;;;;;5076323;28;20289;-75
2021/03/11 15:42:16;;;;;;;;;;;;;;;;;;5036431;28;19921;-79
2021/03/11 15:44:44;;;;;;;;;;;;;;;;;;5035743;28;19921;-80
2021/03/11 15:47:12;;;;;;;;;;;;;;;;;;5036204;28;20024;-80
2021/03/11 15:49:39;;;;;;;;;;;;;;;;;;5036666;28;19921;-80
2021/03/11 15:52:06;;;;;;;;;;;;;;;;;;5037396;28;20028;-80
2021/03/11 15:54:32;;;;;;;;;;;;;;;;;;5036830;28;19921;-78
2021/03/11 15:56:59;;;;;;;;;;;;;;;;;;5035587;28;19921;-79
2021/03/11 15:59:26;;;;;;;;;;;;;;;;;;5036407;28;19933;-78
2021/03/11 16:01:52;;;;;;;;;;;;;;;;;;5034394;28;19921;-78
2021/03/11 16:04:19;;;;;;;;;;;;;;;;;;5034075;28;19928;-79
2021/03/11 16:06:46;;;;;;;;;;;;;;;;;;5033663;28;20001;-79
2021/03/11 16:09:12;;;;;;;;;;;;;;;;;;5033444;28;19921;-79
2021/03/11 16:11:39;;;;;;;;;;;;;;;;;;5034190;28;19986;-78
2021/03/11 16:14:06;;;;;;;;;;;;;;;;;;5073955;28;19928;-78
2021/03/11 16:16:32;;;;;;;;;;;;;;;;;;5077816;28;19921;-79
2021/03/11 16:18:59;;;;;;;;;;;;;;;;;;5079735;28;19921;-78
2021/03/11 16:21:28;;;;;;;;;;;;;;;;;;5080692;28;19920;-78
2021/03/11 16:23:54;;;;;;;;;;;;;;;;;;5078410;28;20342;-81
2021/03/11 16:26:21;;;;;;;;;;;;;;;;;;5078148;28;19920;-81
2021/03/11 16:28:48;;;;;;;;;;;;;;;;;;5077417;28;19926;-84
2021/03/11 16:31:14;;;;;;;;;;;;;;;;;;5077498;28;19943;-81
2021/03/11 16:33:41;;;;;;;;;;;;;;;;;;5077249;28;19920;-81
2021/03/11 16:36:07;;;;;;;;;;;;;;;;;;5077567;28;19970;-81
2021/03/11 16:38:34;;;;;;;;;;;;;;;;;;5078287;28;19921;-82
2021/03/11 16:41:01;;;;;;;;;;;;;;;;;;5078048;28;19920;-81
2021/03/11 16:43:28;;;;;;;;;;;;;;;;;;5076411;28;20015;-82
2021/03/11 16:45:54;;;;;;;;;;;;;;;;;;5077427;28;19927;-82